Thursday, June 29, 2017, 10:22 AM EDT
Back to Local

KPTW, Pottstown Limerick Airport

Location: Royersford, PA, United States Lat: 40.233
Local Time: 10:22 AM EDT (14:22 GMT) Lon: -75.55
Time Zone: US/Eastern Elev: 291 ft

Show me the last for .
Show Decoded

2017-06-29 09:54 METAR KPTW 291354Z AUTO 22005KT 10SM CLR 23/15 A3016 RMK AO2 SLP209 T02280150 =
2017-06-29 08:54 METAR KPTW 291254Z AUTO VRB05KT 10SM CLR 21/16 A3017 RMK AO2 SLP212 T02060156 =
2017-06-29 07:54 METAR KPTW 291154Z AUTO 20004KT 10SM CLR 19/15 A3018 RMK AO2 SLP215 T01890150
                 10189 20161 53002 =
2017-06-29 06:54 METAR KPTW 291054Z AUTO 00000KT 10SM CLR 18/16 A3017 RMK AO2 SLP214 T01830156 =
2017-06-29 05:54 METAR KPTW 290954Z AUTO 00000KT 10SM CLR 17/14 A3016 RMK AO2 SLP211 T01720139 =
2017-06-29 04:54 METAR KPTW 290854Z AUTO 00000KT 10SM CLR 17/14 A3017 RMK AO2 SLP213 T01670139
                 53004 =
2017-06-29 03:54 METAR KPTW 290754Z AUTO 00000KT 10SM CLR 17/13 A3016 RMK AO2 SLP210 T01720133 =
2017-06-29 02:54 METAR KPTW 290654Z AUTO 00000KT 10SM CLR 18/12 A3016 RMK AO2 SLP210 T01830122 =
2017-06-29 01:54 METAR KPTW 290554Z AUTO 00000KT 10SM CLR 19/11 A3016 RMK AO2 SLP210 T01890111
                 10228 20178 53001 =
2017-06-29 00:54 METAR KPTW 290454Z AUTO 19004KT 10SM CLR 19/11 A3016 RMK AO2 SLP208 T01890106
                 402500111 =
2017-06-28 23:54 METAR KPTW 290354Z AUTO 00000KT 10SM CLR 19/11 A3016 RMK AO2 SLP209 T01890106 =
2017-06-28 22:54 METAR KPTW 290254Z AUTO 20003KT 10SM CLR 19/10 A3016 RMK AO2 SLP209 T01940100
                 53009 =
2017-06-28 21:54 METAR KPTW 290154Z AUTO 18003KT 10SM CLR 20/11 A3015 RMK AO2 SLP206 T02000106 =
2017-06-28 20:54 METAR KPTW 290054Z AUTO 19004KT 10SM CLR 21/10 A3013 RMK AO2 SLP200 T02110100 =
2017-06-28 19:54 METAR KPTW 282354Z AUTO 19004KT 10SM CLR 22/10 A3013 RMK AO2 SLP200 T02220100
                 10250 20222 56005 =
2017-06-28 18:54 METAR KPTW 282254Z AUTO 24006KT 10SM FEW070 24/09 A3014 RMK AO2 SLP201 T02390094
                 =
2017-06-28 17:54 METAR KPTW 282154Z AUTO 26005KT 10SM FEW080 24/09 A3013 RMK AO2 SLP200 T02390089
                 =
2017-06-28 16:54 METAR KPTW 282054Z AUTO 31006KT 10SM SCT075 24/09 A3015 RMK AO2 SLP205 T02390094
                 58004 =
2017-06-28 15:54 METAR KPTW 281954Z AUTO VRB03KT 10SM SCT070 24/10 A3015 RMK AO2 SLP205 T02440100
                 =
2017-06-28 14:54 METAR KPTW 281854Z AUTO 35005KT 10SM SCT070 23/09 A3016 RMK AO2 SLP209 T02330089
                 =
2017-06-28 13:54 METAR KPTW 281754Z AUTO 28004KT 10SM SCT070 23/10 A3016 RMK AO2 SLP209 T02330100
                 10239 20161 58007 =
2017-06-28 12:54 METAR KPTW 281654Z AUTO 32010G15KT 10SM CLR 23/10 A3019 RMK AO2 SLP220 T02280100
                 =
2017-06-28 11:54 METAR KPTW 281554Z AUTO 26007KT 10SM CLR 22/09 A3018 RMK AO2 SLP216 T02220094 =
2017-06-28 10:54 METAR KPTW 281454Z AUTO 31006KT 10SM CLR 22/08 A3018 RMK AO2 SLP216 T02170078
                 51006 =

Support USWX by starting your Amazon purchase here.